Time;durP1;ratioP1;P1;durP2;ratioP2;P2;SDS_P1;SDS_P2;PMS_P1;PMS_P2;Temp;Humidity;BMP_temperature;BMP_pressure;BME280_temperature;BME280_humidity;BME280_pressure;Samples;Min_cycle;Max_cycle;Signal;HPM_P1;HPM_P2
2022/12/26 00:02:11;;;;;;;14.18;6.55;;;;;;;;;;5056618;28;20610;-77
2022/12/26 00:04:36;;;;;;;14.20;6.47;;;;;;;;;;5047801;28;20037;-77
2022/12/26 00:07:01;;;;;;;11.05;5.60;;;;;;;;;;5046820;28;20106;-77
2022/12/26 00:09:27;;;;;;;13.68;5.25;;;;;;;;;;5028884;28;20029;-77
2022/12/26 00:11:52;;;;;;;11.68;5.22;;;;;;;;;;5029485;28;20033;-76
2022/12/26 00:14:17;;;;;;;9.55;5.18;;;;;;;;;;5036351;28;20099;-77
2022/12/26 00:16:44;;;;;;;12.68;5.35;;;;;;;;;;5042462;28;20040;-78
2022/12/26 00:19:09;;;;;;;9.45;5.22;;;;;;;;;;5034401;28;20051;-77
2022/12/26 00:21:35;;;;;;;10.00;4.68;;;;;;;;;;5027974;28;20022;-76
2022/12/26 00:24:01;;;;;;;9.73;4.78;;;;;;;;;;5023347;28;20021;-77
2022/12/26 00:26:29;;;;;;;8.13;4.10;;;;;;;;;;5033584;28;20526;-77
2022/12/26 00:28:56;;;;;;;8.18;3.42;;;;;;;;;;5045905;28;20029;-77
2022/12/26 00:31:33;;;;;;;7.88;4.28;;;;;;;;;;5045853;28;20108;-77
2022/12/26 00:33:59;;;;;;;6.70;3.65;;;;;;;;;;5038051;28;20044;-77
2022/12/26 00:36:28;;;;;;;9.48;4.20;;;;;;;;;;5040313;28;20426;-77
2022/12/26 00:38:54;;;;;;;8.18;4.50;;;;;;;;;;5030372;28;20036;-76
2022/12/26 00:41:20;;;;;;;9.10;4.10;;;;;;;;;;5044826;28;20044;-77
2022/12/26 00:43:46;;;;;;;9.35;4.05;;;;;;;;;;5027700;28;20044;-77
2022/12/26 00:46:12;;;;;;;11.88;5.20;;;;;;;;;;5037736;28;20045;-77
2022/12/26 00:48:37;;;;;;;14.65;5.22;;;;;;;;;;5019927;28;20045;-77
2022/12/26 00:51:04;;;;;;;11.27;5.32;;;;;;;;;;5022937;28;20074;-77
2022/12/26 00:53:29;;;;;;;8.63;4.45;;;;;;;;;;5045896;28;20410;-77
2022/12/26 00:55:55;;;;;;;9.27;4.25;;;;;;;;;;5023929;28;20601;-77
2022/12/26 00:58:21;;;;;;;8.82;4.55;;;;;;;;;;5036503;28;20064;-77
2022/12/26 01:00:47;;;;;;;9.88;4.43;;;;;;;;;;5029640;28;20038;-77
2022/12/26 01:03:13;;;;;;;9.73;4.22;;;;;;;;;;5016528;28;20116;-77
2022/12/26 01:05:42;;;;;;;8.35;4.00;;;;;;;;;;5046376;28;20021;-77
2022/12/26 01:08:08;;;;;;;8.30;4.55;;;;;;;;;;5031578;28;20406;-77
2022/12/26 01:10:34;;;;;;;7.70;3.95;;;;;;;;;;5045310;28;20559;-77
2022/12/26 01:12:59;;;;;;;9.75;4.32;;;;;;;;;;5027824;28;20542;-77
2022/12/26 01:15:24;;;;;;;9.43;3.65;;;;;;;;;;5044710;28;20546;-77
2022/12/26 01:17:50;;;;;;;8.63;4.53;;;;;;;;;;5041737;28;20158;-77
2022/12/26 01:20:16;;;;;;;6.07;3.20;;;;;;;;;;5037480;28;20080;-77
2022/12/26 01:22:42;;;;;;;6.32;3.03;;;;;;;;;;5044462;28;20057;-77
2022/12/26 01:25:07;;;;;;;5.38;2.80;;;;;;;;;;5043943;28;20083;-77
2022/12/26 01:27:33;;;;;;;7.70;3.38;;;;;;;;;;5041033;28;20033;-76
2022/12/26 01:29:58;;;;;;;5.50;2.88;;;;;;;;;;5026894;28;20025;-77
2022/12/26 01:32:23;;;;;;;7.05;2.90;;;;;;;;;;5035651;28;20036;-77
2022/12/26 01:34:51;;;;;;;5.68;2.95;;;;;;;;;;5022987;28;20924;-76
2022/12/26 01:37:16;;;;;;;10.00;3.53;;;;;;;;;;5017260;28;20524;-77
2022/12/26 01:39:42;;;;;;;6.82;3.60;;;;;;;;;;5043497;28;20673;-77
2022/12/26 01:42:15;;;;;;;9.30;3.47;;;;;;;;;;5024382;28;20044;-77
2022/12/26 01:45:01;;;;;;;8.52;4.10;;;;;;;;;;5037712;28;20663;-77
2022/12/26 01:47:52;;;;;;;7.38;4.10;;;;;;;;;;5026965;28;20037;-77
2022/12/26 01:50:27;;;;;;;5.75;3.63;;;;;;;;;;5015147;28;20115;-77
2022/12/26 01:52:54;;;;;;;8.20;3.55;;;;;;;;;;5024328;28;20071;-77
2022/12/26 01:55:21;;;;;;;8.98;3.55;;;;;;;;;;5021479;28;20063;-77
2022/12/26 01:57:55;;;;;;;6.05;3.45;;;;;;;;;;5037558;28;20040;-77
2022/12/26 02:00:20;;;;;;;5.93;3.28;;;;;;;;;;5037813;28;20041;-77
2022/12/26 02:05:33;;;;;;;5.65;3.30;;;;;;;;;;5037704;28;20126;-77
2022/12/26 02:08:11;;;;;;;8.65;3.40;;;;;;;;;;5041763;28;20044;-77
2022/12/26 02:10:48;;;;;;;6.40;3.25;;;;;;;;;;5022425;28;20061;-77
2022/12/26 02:13:14;;;;;;;8.38;3.90;;;;;;;;;;5043717;28;20041;-77
2022/12/26 02:15:40;;;;;;;8.02;3.78;;;;;;;;;;5021673;28;20048;-77
2022/12/26 02:18:06;;;;;;;6.10;3.33;;;;;;;;;;5034035;28;20025;-77
2022/12/26 02:20:46;;;;;;;8.13;3.55;;;;;;;;;;5026935;28;20029;-77
2022/12/26 02:23:11;;;;;;;8.02;4.05;;;;;;;;;;5033470;28;20033;-77
2022/12/26 02:25:52;;;;;;;8.48;4.18;;;;;;;;;;5030541;28;20041;-77
2022/12/26 02:28:39;;;;;;;9.18;3.85;;;;;;;;;;5023335;28;20069;-77
2022/12/26 02:31:34;;;;;;;6.57;3.50;;;;;;;;;;5034606;28;20037;-77
2022/12/26 02:34:21;;;;;;;10.27;3.75;;;;;;;;;;5022172;28;20045;-77
2022/12/26 02:36:55;;;;;;;7.30;3.60;;;;;;;;;;5027518;28;20454;-77
2022/12/26 02:39:42;;;;;;;7.45;3.70;;;;;;;;;;5034699;28;20044;-78
2022/12/26 02:42:33;;;;;;;7.65;3.40;;;;;;;;;;5038627;28;20052;-77
2022/12/26 02:48:35;;;;;;;8.82;3.08;;;;;;;;;;5041014;28;20024;-77
2022/12/26 03:14:47;;;;;;;7.60;3.40;;;;;;;;;;5038705;28;20043;-77
2022/12/26 03:17:32;;;;;;;6.53;3.17;;;;;;;;;;5025044;28;20041;-77
2022/12/26 03:20:02;;;;;;;6.30;3.45;;;;;;;;;;5038479;28;20103;-77
2022/12/26 03:22:55;;;;;;;6.78;3.58;;;;;;;;;;5027810;28;20931;-77
2022/12/26 03:28:25;;;;;;;9.27;3.78;;;;;;;;;;5038567;28;20739;-77
2022/12/26 03:30:52;;;;;;;6.80;3.40;;;;;;;;;;5044802;28;20542;-77
2022/12/26 03:36:35;;;;;;;4.50;2.60;;;;;;;;;;5008180;28;20044;-77
2022/12/26 03:39:16;;;;;;;6.03;2.72;;;;;;;;;;5032725;28;20029;-78
2022/12/26 04:44:29;;;;;;;4.50;2.40;;;;;;;;;;5044481;28;20175;-77
2022/12/26 04:46:55;;;;;;;3.22;2.00;;;;;;;;;;5046956;28;20583;-77
2022/12/26 04:52:10;;;;;;;4.57;2.10;;;;;;;;;;5042271;28;20039;-78
2022/12/26 04:54:35;;;;;;;3.58;1.63;;;;;;;;;;5035652;28;20044;-77
2022/12/26 04:57:01;;;;;;;2.80;1.60;;;;;;;;;;5034701;28;20037;-77
2022/12/26 04:59:27;;;;;;;3.13;1.55;;;;;;;;;;5023633;28;20029;-78
2022/12/26 05:10:27;;;;;;;4.13;1.35;;;;;;;;;;5034834;28;20567;-77
2022/12/26 05:12:53;;;;;;;2.05;1.23;;;;;;;;;;5037134;28;20715;-77
2022/12/26 05:15:19;;;;;;;3.03;1.45;;;;;;;;;;5044814;28;20033;-77
2022/12/26 05:29:00;;;;;;;4.50;1.35;;;;;;;;;;5048056;28;20055;-78
2022/12/26 05:31:25;;;;;;;1.85;1.33;;;;;;;;;;5047453;28;20878;-77
2022/12/26 05:36:52;;;;;;;5.57;1.38;;;;;;;;;;5041532;28;20031;-77
2022/12/26 05:39:17;;;;;;;2.10;1.23;;;;;;;;;;5023346;28;20037;-77
2022/12/26 05:41:42;;;;;;;2.95;1.50;;;;;;;;;;5048714;28;20042;-77
2022/12/26 05:44:09;;;;;;;3.85;1.25;;;;;;;;;;5026986;28;20037;-77
2022/12/26 05:46:35;;;;;;;3.58;1.40;;;;;;;;;;5027867;28;20088;-77
2022/12/26 05:49:00;;;;;;;4.38;1.42;;;;;;;;;;5041422;28;20452;-77
2022/12/26 05:51:26;;;;;;;2.95;1.20;;;;;;;;;;5043203;28;20124;-77
2022/12/26 05:53:51;;;;;;;4.32;1.30;;;;;;;;;;5029338;28;20056;-77
2022/12/26 05:56:18;;;;;;;2.30;1.45;;;;;;;;;;5046601;28;20415;-77
2022/12/26 05:58:44;;;;;;;3.47;1.25;;;;;;;;;;5046230;28;20414;-77
2022/12/26 06:01:15;;;;;;;1.15;1.00;;;;;;;;;;5046590;28;20041;-77
2022/12/26 06:03:42;;;;;;;1.90;1.05;;;;;;;;;;5046911;28;20434;-77
2022/12/26 06:06:08;;;;;;;3.80;1.60;;;;;;;;;;5042866;28;20021;-77
2022/12/26 06:08:34;;;;;;;2.05;1.27;;;;;;;;;;5039666;28;20040;-77
2022/12/26 06:11:05;;;;;;;1.92;1.20;;;;;;;;;;5028330;28;20043;-77
2022/12/26 06:13:31;;;;;;;1.33;1.02;;;;;;;;;;5029386;28;20048;-77
2022/12/26 06:15:57;;;;;;;2.13;1.20;;;;;;;;;;5045916;28;20064;-78
2022/12/26 06:18:22;;;;;;;1.75;1.00;;;;;;;;;;5047050;28;20033;-77
2022/12/26 06:20:48;;;;;;;1.17;1.00;;;;;;;;;;5047333;28;20570;-77
2022/12/26 06:23:13;;;;;;;1.95;1.15;;;;;;;;;;5042023;28;20060;-77
2022/12/26 06:25:38;;;;;;;2.20;1.20;;;;;;;;;;5021873;28;20071;-77
2022/12/26 06:28:03;;;;;;;1.48;0.95;;;;;;;;;;5027352;28;20052;-77
2022/12/26 06:30:29;;;;;;;3.83;1.13;;;;;;;;;;5046474;28;20642;-77
2022/12/26 06:32:54;;;;;;;1.17;0.90;;;;;;;;;;5028529;28;20029;-77
2022/12/26 06:35:19;;;;;;;1.45;1.10;;;;;;;;;;5026755;28;20044;-77
2022/12/26 06:37:45;;;;;;;1.83;1.10;;;;;;;;;;5047117;28;20163;-77
2022/12/26 06:40:10;;;;;;;3.08;1.20;;;;;;;;;;5045132;28;20033;-77
2022/12/26 06:42:35;;;;;;;2.90;0.98;;;;;;;;;;5027465;28;20040;-77
2022/12/26 06:45:01;;;;;;;1.13;0.80;;;;;;;;;;5033787;28;20051;-77
2022/12/26 06:47:26;;;;;;;1.83;1.00;;;;;;;;;;5039405;28;20108;-77
2022/12/26 06:49:51;;;;;;;2.22;1.13;;;;;;;;;;5037568;28;20025;-78
2022/12/26 06:52:16;;;;;;;3.13;1.00;;;;;;;;;;5028422;28;20111;-77
2022/12/26 06:54:42;;;;;;;1.73;1.20;;;;;;;;;;5041491;28;20033;-77
2022/12/26 06:57:07;;;;;;;1.75;1.10;;;;;;;;;;5036290;28;20020;-78
2022/12/26 06:59:32;;;;;;;2.58;1.10;;;;;;;;;;5043953;28;20035;-78
2022/12/26 07:01:58;;;;;;;2.58;1.15;;;;;;;;;;5027585;28;20033;-77
2022/12/26 07:04:23;;;;;;;1.50;1.00;;;;;;;;;;5037215;28;20092;-77
2022/12/26 07:06:49;;;;;;;1.85;1.17;;;;;;;;;;5044904;28;20041;-77
2022/12/26 07:09:16;;;;;;;3.80;1.33;;;;;;;;;;5026777;28;20085;-77
2022/12/26 07:11:45;;;;;;;1.85;1.15;;;;;;;;;;5046885;28;20033;-78
2022/12/26 07:14:10;;;;;;;2.05;1.05;;;;;;;;;;5044352;28;20040;-78
2022/12/26 07:16:38;;;;;;;1.73;0.98;;;;;;;;;;5039017;28;20041;-77
2022/12/26 07:19:03;;;;;;;2.00;0.90;;;;;;;;;;5018832;28;20094;-78
2022/12/26 07:21:29;;;;;;;2.75;1.15;;;;;;;;;;5010559;28;20071;-77
2022/12/26 07:23:54;;;;;;;4.78;1.60;;;;;;;;;;5019898;28;20017;-78
2022/12/26 07:26:21;;;;;;;3.55;1.42;;;;;;;;;;5025555;28;20025;-77
2022/12/26 07:28:46;;;;;;;1.73;1.08;;;;;;;;;;5020771;28;20116;-77
2022/12/26 07:31:18;;;;;;;1.77;1.10;;;;;;;;;;5022081;28;20147;-77
2022/12/26 07:33:53;;;;;;;2.05;1.20;;;;;;;;;;5023980;28;20056;-78
2022/12/26 07:36:19;;;;;;;3.22;1.40;;;;;;;;;;5019896;28;20029;-77
2022/12/26 07:38:45;;;;;;;4.30;1.30;;;;;;;;;;5025800;28;20522;-77
2022/12/26 07:43:54;;;;;;;3.05;1.25;;;;;;;;;;5023506;28;20035;-77
2022/12/26 07:46:19;;;;;;;2.72;1.45;;;;;;;;;;5013116;28;20038;-78
2022/12/26 07:48:44;;;;;;;9.27;2.97;;;;;;;;;;5013087;28;20711;-77
2022/12/26 07:51:10;;;;;;;3.17;1.45;;;;;;;;;;5024551;28;20029;-78
2022/12/26 07:53:35;;;;;;;2.65;1.60;;;;;;;;;;5019069;28;20029;-77
2022/12/26 07:56:01;;;;;;;5.10;1.40;;;;;;;;;;5025710;28;20396;-77
2022/12/26 07:58:26;;;;;;;2.50;1.40;;;;;;;;;;5020517;28;20042;-77
2022/12/26 08:00:52;;;;;;;5.07;1.65;;;;;;;;;;5024808;28;20070;-77
2022/12/26 08:03:17;;;;;;;2.20;1.33;;;;;;;;;;5016100;28;20046;-77
2022/12/26 08:05:47;;;;;;;2.83;1.30;;;;;;;;;;5004974;28;20083;-77
2022/12/26 08:08:12;;;;;;;3.55;1.23;;;;;;;;;;5018129;28;20037;-77
2022/12/26 08:10:37;;;;;;;3.25;1.13;;;;;;;;;;5015142;28;20507;-78
2022/12/26 08:13:03;;;;;;;11.88;2.63;;;;;;;;;;5017865;28;20067;-78
2022/12/26 08:15:28;;;;;;;4.43;2.00;;;;;;;;;;5021330;28;20105;-78
2022/12/26 08:17:53;;;;;;;2.20;1.40;;;;;;;;;;5016132;28;20088;-78
2022/12/26 08:20:19;;;;;;;5.00;1.10;;;;;;;;;;5031413;28;20049;-77
2022/12/26 08:22:44;;;;;;;2.80;1.30;;;;;;;;;;5015290;28;20095;-78
2022/12/26 08:25:10;;;;;;;3.45;1.40;;;;;;;;;;5015427;28;20063;-79
2022/12/26 08:27:35;;;;;;;1.67;1.13;;;;;;;;;;5015246;28;20112;-78
2022/12/26 08:30:00;;;;;;;1.73;1.35;;;;;;;;;;5016414;28;20433;-78
2022/12/26 08:32:26;;;;;;;5.03;1.98;;;;;;;;;;5020349;28;20096;-78
2022/12/26 08:34:51;;;;;;;5.40;1.70;;;;;;;;;;5028471;28;20108;-78
2022/12/26 08:37:17;;;;;;;3.60;1.63;;;;;;;;;;5013005;28;20045;-78
2022/12/26 08:39:42;;;;;;;2.53;1.60;;;;;;;;;;5018180;28;20034;-78
2022/12/26 08:42:07;;;;;;;2.20;1.40;;;;;;;;;;5018001;28;20025;-78
2022/12/26 08:44:33;;;;;;;4.18;1.50;;;;;;;;;;5014710;28;20028;-78
2022/12/26 08:46:58;;;;;;;5.40;1.30;;;;;;;;;;5027240;28;20057;-77
2022/12/26 08:49:23;;;;;;;6.30;1.40;;;;;;;;;;5024300;28;20033;-78
2022/12/26 08:51:49;;;;;;;4.75;1.23;;;;;;;;;;5019861;28;20483;-78
2022/12/26 08:54:14;;;;;;;1.60;1.20;;;;;;;;;;5027660;28;20491;-78
2022/12/26 08:56:39;;;;;;;3.80;1.85;;;;;;;;;;5029134;28;20034;-77
2022/12/26 08:59:04;;;;;;;3.15;1.40;;;;;;;;;;5027220;28;20041;-77
2022/12/26 09:01:30;;;;;;;1.35;1.00;;;;;;;;;;5026576;28;20041;-77
2022/12/26 09:04:01;;;;;;;4.22;1.10;;;;;;;;;;5017067;28;20521;-77
2022/12/26 09:06:27;;;;;;;4.25;1.30;;;;;;;;;;5008632;28;20030;-77
2022/12/26 09:08:53;;;;;;;6.90;1.40;;;;;;;;;;5027720;28;20020;-77
2022/12/26 09:11:22;;;;;;;1.60;1.17;;;;;;;;;;5019779;28;20703;-77
2022/12/26 09:13:47;;;;;;;1.33;0.82;;;;;;;;;;5021790;28;20034;-76
2022/12/26 09:16:19;;;;;;;3.75;1.30;;;;;;;;;;5019453;28;20041;-77
2022/12/26 09:18:46;;;;;;;3.65;1.17;;;;;;;;;;5032267;28;20042;-77
2022/12/26 09:21:13;;;;;;;2.60;1.08;;;;;;;;;;5036004;28;20036;-77
2022/12/26 09:23:39;;;;;;;3.45;1.23;;;;;;;;;;5022644;28;20057;-77
2022/12/26 09:26:17;;;;;;;3.67;1.17;;;;;;;;;;5011985;28;20075;-76
2022/12/26 09:28:44;;;;;;;1.92;1.20;;;;;;;;;;5022228;28;20709;-75
2022/12/26 09:31:12;;;;;;;2.67;1.27;;;;;;;;;;5011519;28;20557;-75
2022/12/26 09:33:38;;;;;;;6.05;1.23;;;;;;;;;;5018790;28;20136;-75
2022/12/26 09:36:07;;;;;;;3.55;1.27;;;;;;;;;;5028663;28;20029;-75
2022/12/26 09:38:33;;;;;;;3.15;1.08;;;;;;;;;;5022498;28;20026;-75
2022/12/26 09:41:20;;;;;;;2.47;1.25;;;;;;;;;;5019692;28;20207;-75
2022/12/26 09:44:10;;;;;;;4.53;1.30;;;;;;;;;;5030113;28;20096;-75
2022/12/26 09:47:03;;;;;;;5.05;1.40;;;;;;;;;;5019376;28;20042;-77
2022/12/26 09:49:40;;;;;;;3.50;1.20;;;;;;;;;;5030313;28;20042;-76
2022/12/26 09:52:13;;;;;;;5.03;1.83;;;;;;;;;;5023010;28;20530;-77
2022/12/26 09:54:46;;;;;;;3.03;1.40;;;;;;;;;;5022344;28;20029;-76
2022/12/26 09:57:17;;;;;;;2.20;1.23;;;;;;;;;;5021530;28;20045;-76
2022/12/26 09:59:59;;;;;;;3.10;1.40;;;;;;;;;;5024312;28;20575;-76
2022/12/26 10:02:26;;;;;;;2.97;1.23;;;;;;;;;;5016692;28;20136;-76
2022/12/26 10:04:53;;;;;;;3.33;1.25;;;;;;;;;;5023780;28;21312;-76
2022/12/26 10:07:50;;;;;;;4.68;1.63;;;;;;;;;;5017019;28;20037;-76
2022/12/26 10:10:37;;;;;;;5.80;1.85;;;;;;;;;;5011260;28;20029;-76
2022/12/26 10:13:30;;;;;;;2.63;1.55;;;;;;;;;;5025670;28;20049;-78
2022/12/26 10:16:03;;;;;;;1.67;0.90;;;;;;;;;;5023483;28;20029;-76
2022/12/26 10:18:43;;;;;;;7.40;2.10;;;;;;;;;;5027584;28;20540;-76
2022/12/26 10:21:26;;;;;;;4.32;1.33;;;;;;;;;;5045046;28;20025;-76
2022/12/26 10:23:59;;;;;;;5.25;1.58;;;;;;;;;;5040247;28;20032;-76
2022/12/26 10:26:32;;;;;;;8.20;1.83;;;;;;;;;;5039817;28;20033;-79
2022/12/26 10:29:10;;;;;;;4.82;2.50;;;;;;;;;;5044523;28;20033;-74
2022/12/26 10:31:44;;;;;;;6.65;1.33;;;;;;;;;;5036950;28;20107;-75
2022/12/26 10:34:19;;;;;;;7.95;1.63;;;;;;;;;;5032556;28;20048;-75
2022/12/26 10:37:07;;;;;;;3.15;1.10;;;;;;;;;;5032678;28;20659;-75
2022/12/26 10:39:46;;;;;;;9.80;2.60;;;;;;;;;;5027493;28;20049;-75
2022/12/26 10:42:24;;;;;;;7.60;1.52;;;;;;;;;;5041797;28;20036;-75
2022/12/26 10:44:50;;;;;;;3.15;1.10;;;;;;;;;;5045132;28;20075;-76
2022/12/26 10:47:40;;;;;;;3.17;1.40;;;;;;;;;;5045107;28;20756;-75
2022/12/26 10:50:14;;;;;;;5.50;1.35;;;;;;;;;;5043257;28;20033;-77
2022/12/26 10:52:40;;;;;;;5.95;1.50;;;;;;;;;;5031319;28;20033;-76
2022/12/26 10:55:11;;;;;;;10.13;1.63;;;;;;;;;;5025304;28;20044;-76
2022/12/26 10:57:40;;;;;;;4.72;1.48;;;;;;;;;;5032855;28;20041;-76
2022/12/26 11:00:24;;;;;;;4.75;1.40;;;;;;;;;;5032392;28;20033;-76
2022/12/26 11:03:03;;;;;;;7.60;1.67;;;;;;;;;;5044194;28;20029;-76
2022/12/26 11:05:28;;;;;;;4.03;1.63;;;;;;;;;;5044683;28;20079;-75
2022/12/26 11:08:05;;;;;;;2.17;0.80;;;;;;;;;;5044988;28;20044;-76
2022/12/26 11:10:30;;;;;;;1.52;0.93;;;;;;;;;;5043977;28;20044;-76
2022/12/26 11:13:00;;;;;;;1.85;0.80;;;;;;;;;;5044495;28;20037;-76
2022/12/26 11:15:39;;;;;;;1.50;0.85;;;;;;;;;;5043963;28;20052;-76
2022/12/26 11:18:30;;;;;;;3.50;0.73;;;;;;;;;;5037130;28;20414;-76
2022/12/26 11:21:12;;;;;;;2.30;1.17;;;;;;;;;;5018594;28;20033;-76
2022/12/26 11:23:37;;;;;;;3.75;1.00;;;;;;;;;;5043005;28;20048;-77
2022/12/26 11:26:19;;;;;;;1.80;0.45;;;;;;;;;;5044211;28;20056;-76
2022/12/26 11:28:44;;;;;;;1.77;0.70;;;;;;;;;;5026135;28;20084;-76
2022/12/26 11:31:23;;;;;;;2.35;0.75;;;;;;;;;;5037265;28;20472;-80
2022/12/26 11:33:48;;;;;;;2.85;0.50;;;;;;;;;;5033618;28;20029;-80
2022/12/26 11:36:14;;;;;;;5.57;0.82;;;;;;;;;;5034247;28;20549;-82
2022/12/26 11:39:00;;;;;;;3.97;0.80;;;;;;;;;;5030214;28;20017;-80
2022/12/26 11:41:31;;;;;;;4.55;0.70;;;;;;;;;;5024038;28;20053;-81
2022/12/26 11:44:32;;;;;;;3.15;1.10;;;;;;;;;;5029206;28;20042;-82
2022/12/26 11:46:59;;;;;;;3.03;0.73;;;;;;;;;;5021964;28;20060;-82
2022/12/26 11:49:36;;;;;;;4.50;1.23;;;;;;;;;;5034087;28;20749;-79
2022/12/26 11:52:34;;;;;;;1.95;0.63;;;;;;;;;;5043932;28;20041;-79
2022/12/26 11:54:59;;;;;;;1.65;1.05;;;;;;;;;;5024753;28;20089;-78
2022/12/26 11:57:30;;;;;;;4.40;0.80;;;;;;;;;;5025723;28;20044;-78
2022/12/26 12:00:15;;;;;;;3.28;1.00;;;;;;;;;;5019748;28;20059;-78
2022/12/26 12:02:40;;;;;;;3.88;1.15;;;;;;;;;;5031784;28;20053;-78
2022/12/26 12:05:15;;;;;;;1.02;0.88;;;;;;;;;;5023618;28;20041;-77
2022/12/26 12:08:28;;;;;;;3.92;0.88;;;;;;;;;;5044237;28;20037;-78
2022/12/26 12:11:02;;;;;;;2.10;0.70;;;;;;;;;;4939857;28;20050;-78
2022/12/26 12:13:33;;;;;;;2.97;1.05;;;;;;;;;;4945283;28;20567;-79
2022/12/26 12:16:21;;;;;;;5.20;1.17;;;;;;;;;;4997757;28;20110;-79
2022/12/26 12:18:59;;;;;;;2.78;1.08;;;;;;;;;;5044031;28;20049;-79
2022/12/26 12:21:48;;;;;;;7.32;1.25;;;;;;;;;;5045250;28;20033;-78
2022/12/26 12:24:16;;;;;;;3.97;1.00;;;;;;;;;;5038864;28;20061;-78
2022/12/26 12:26:46;;;;;;;2.70;1.17;;;;;;;;;;5055467;28;20009;-80
2022/12/26 12:29:21;;;;;;;3.90;1.08;;;;;;;;;;5024798;28;20391;-79
2022/12/26 12:31:59;;;;;;;3.78;1.00;;;;;;;;;;5026383;28;20040;-79
2022/12/26 12:35:03;;;;;;;3.40;0.93;;;;;;;;;;5043526;28;20111;-79
2022/12/26 12:38:06;;;;;;;4.00;0.88;;;;;;;;;;5020868;28;20132;-76
2022/12/26 12:40:57;;;;;;;7.75;1.30;;;;;;;;;;5044168;28;20247;-79
2022/12/26 12:43:40;;;;;;;6.47;1.27;;;;;;;;;;5025918;28;20041;-79
2022/12/26 12:46:18;;;;;;;2.35;1.38;;;;;;;;;;5043040;28;20045;-79
2022/12/26 12:48:58;;;;;;;2.85;0.90;;;;;;;;;;5029572;28;20044;-79
2022/12/26 12:51:59;;;;;;;8.80;1.05;;;;;;;;;;5027555;28;20045;-79
2022/12/26 12:54:33;;;;;;;2.50;0.95;;;;;;;;;;5031379;28;20044;-79
2022/12/26 12:57:11;;;;;;;3.72;1.20;;;;;;;;;;5019919;28;20032;-78
2022/12/26 12:59:55;;;;;;;2.83;0.70;;;;;;;;;;5024720;28;20021;-79
2022/12/26 13:02:28;;;;;;;0.95;0.70;;;;;;;;;;5037018;28;20483;-80
2022/12/26 13:05:31;;;;;;;4.53;1.23;;;;;;;;;;5043948;28;20025;-80
2022/12/26 13:08:05;;;;;;;7.50;1.33;;;;;;;;;;5038178;28;20022;-79
2022/12/26 13:10:33;;;;;;;6.45;1.45;;;;;;;;;;5046114;28;20068;-79
2022/12/26 13:13:11;;;;;;;9.00;1.02;;;;;;;;;;5047323;28;20148;-79
2022/12/26 13:15:45;;;;;;;2.20;0.80;;;;;;;;;;5026351;28;20033;-79
2022/12/26 13:18:19;;;;;;;6.40;1.63;;;;;;;;;;5039115;28;20505;-79
2022/12/26 13:20:47;;;;;;;3.65;1.25;;;;;;;;;;5045312;28;20028;-79
2022/12/26 13:26:18;;;;;;;3.88;1.05;;;;;;;;;;5047271;28;20098;-79
2022/12/26 13:29:11;;;;;;;3.95;0.77;;;;;;;;;;5021433;28;20632;-80
2022/12/26 13:31:38;;;;;;;2.80;1.00;;;;;;;;;;5044697;28;20507;-79
2022/12/26 13:34:08;;;;;;;3.42;1.08;;;;;;;;;;5028399;28;20025;-79
2022/12/26 13:36:43;;;;;;;4.95;1.05;;;;;;;;;;5035454;28;20651;-78
2022/12/26 13:39:28;;;;;;;9.45;1.35;;;;;;;;;;5046091;28;20024;-79
2022/12/26 13:44:50;;;;;;;5.97;1.33;;;;;;;;;;5035730;28;20108;-79
2022/12/26 13:47:36;;;;;;;6.32;1.00;;;;;;;;;;5045656;28;20039;-78
2022/12/26 13:50:48;;;;;;;3.97;0.90;;;;;;;;;;5034370;28;20041;-78
2022/12/26 13:53:27;;;;;;;2.42;0.85;;;;;;;;;;5034258;28;20086;-78
2022/12/26 13:55:58;;;;;;;4.80;1.30;;;;;;;;;;5028939;28;20541;-79
2022/12/26 13:58:48;;;;;;;4.63;1.60;;;;;;;;;;5039453;28;20538;-79
2022/12/26 14:01:26;;;;;;;3.80;0.90;;;;;;;;;;5018656;28;20490;-79
2022/12/26 14:04:14;;;;;;;7.13;1.27;;;;;;;;;;5026973;28;20029;-79
2022/12/26 14:07:23;;;;;;;1.98;0.73;;;;;;;;;;5019045;28;20036;-78
2022/12/26 14:09:57;;;;;;;1.40;0.52;;;;;;;;;;4965030;28;20029;-79
2022/12/26 14:12:44;;;;;;;1.48;0.70;;;;;;;;;;5045960;28;20502;-79
2022/12/26 14:15:47;;;;;;;4.90;1.30;;;;;;;;;;5045362;28;20115;-79
2022/12/26 14:18:25;;;;;;;2.05;0.80;;;;;;;;;;5027759;28;20507;-79
2022/12/26 14:21:00;;;;;;;2.90;0.93;;;;;;;;;;5045211;28;20083;-79
2022/12/26 14:23:38;;;;;;;4.55;0.80;;;;;;;;;;5033799;28;20041;-79
2022/12/26 14:26:19;;;;;;;5.50;1.13;;;;;;;;;;5023429;28;20060;-79
2022/12/26 14:29:08;;;;;;;4.85;0.98;;;;;;;;;;5043463;28;20473;-80
2022/12/26 14:31:36;;;;;;;6.72;1.30;;;;;;;;;;5020313;28;20394;-79
2022/12/26 14:34:10;;;;;;;5.10;1.33;;;;;;;;;;5023169;28;20084;-79
2022/12/26 14:36:57;;;;;;;7.65;1.27;;;;;;;;;;5044752;28;20530;-79
2022/12/26 14:39:56;;;;;;;6.72;1.00;;;;;;;;;;5026255;28;20605;-79
2022/12/26 14:45:30;;;;;;;2.17;0.93;;;;;;;;;;5044411;28;20090;-78
2022/12/26 14:47:56;;;;;;;6.38;1.52;;;;;;;;;;5021155;28;20044;-79
2022/12/26 14:50:31;;;;;;;7.05;1.75;;;;;;;;;;5030376;28;20029;-79
2022/12/26 14:53:21;;;;;;;4.60;0.98;;;;;;;;;;5044377;28;20025;-79
2022/12/26 14:55:51;;;;;;;3.83;0.80;;;;;;;;;;5025302;28;20041;-79
2022/12/26 14:58:42;;;;;;;2.75;1.30;;;;;;;;;;5026728;28;20043;-79
2022/12/26 15:01:08;;;;;;;4.68;1.00;;;;;;;;;;5040954;28;20528;-79
2022/12/26 15:03:39;;;;;;;1.63;0.88;;;;;;;;;;5044353;28;20128;-80
2022/12/26 15:06:17;;;;;;;4.85;1.10;;;;;;;;;;5025831;28;20103;-78
2022/12/26 15:08:45;;;;;;;2.90;1.15;;;;;;;;;;5042196;28;20593;-78
2022/12/26 15:11:29;;;;;;;2.47;1.10;;;;;;;;;;5037886;28;20056;-79
2022/12/26 15:14:13;;;;;;;2.53;0.95;;;;;;;;;;5025664;28;20474;-79
2022/12/26 15:17:10;;;;;;;;;;;;;;;;;;5043612;28;20440;-79
2022/12/26 15:20:07;;;;;;;3.15;1.48;;;;;;;;;;4974888;28;19952;-79
2022/12/26 15:22:48;;;;;;;7.45;2.00;;;;;;;;;;5037877;28;20052;-79
2022/12/26 15:25:36;;;;;;;2.92;1.50;;;;;;;;;;5025868;28;20553;-79
2022/12/26 15:28:29;;;;;;;7.10;2.05;;;;;;;;;;5026199;28;20476;-79
2022/12/26 15:30:54;;;;;;;3.15;0.90;;;;;;;;;;5037081;28;20059;-79
2022/12/26 15:33:32;;;;;;;3.63;1.10;;;;;;;;;;5037096;28;20040;-79
2022/12/26 15:36:18;;;;;;;5.18;0.90;;;;;;;;;;5043974;28;20062;-79
2022/12/26 15:38:56;;;;;;;4.93;1.10;;;;;;;;;;5033151;28;20867;-79
2022/12/26 15:41:40;;;;;;;3.00;0.93;;;;;;;;;;5020385;28;20096;-79
2022/12/26 15:44:20;;;;;;;2.80;1.20;;;;;;;;;;5043295;28;20114;-79
2022/12/26 15:47:27;;;;;;;1.60;0.70;;;;;;;;;;5042632;28;20048;-79
2022/12/26 15:50:11;;;;;;;3.00;0.85;;;;;;;;;;5039259;28;20021;-79
2022/12/26 15:52:49;;;;;;;4.25;1.25;;;;;;;;;;5024946;28;20037;-79
2022/12/26 15:55:39;;;;;;;5.00;1.10;;;;;;;;;;5012100;28;20044;-79
2022/12/26 15:58:22;;;;;;;3.40;0.88;;;;;;;;;;5028354;28;20037;-79
2022/12/26 16:00:53;;;;;;;2.80;1.13;;;;;;;;;;5035834;28;20041;-79
2022/12/26 16:03:28;;;;;;;1.63;0.98;;;;;;;;;;5023755;28;20276;-79
2022/12/26 16:06:25;;;;;;;3.28;1.00;;;;;;;;;;5043737;28;20191;-79
2022/12/26 16:09:22;;;;;;;4.18;1.40;;;;;;;;;;5024384;28;20026;-78
2022/12/26 16:11:58;;;;;;;5.10;1.35;;;;;;;;;;5032330;28;20067;-79
2022/12/26 16:14:31;;;;;;;4.07;1.77;;;;;;;;;;5030944;28;20048;-78
2022/12/26 16:17:12;;;;;;;8.90;2.80;;;;;;;;;;5025346;28;20048;-79
2022/12/26 16:19:39;;;;;;;7.35;2.50;;;;;;;;;;5026617;28;20400;-78
2022/12/26 16:24:53;;;;;;;7.63;2.85;;;;;;;;;;5019317;28;20044;-78
2022/12/26 16:27:22;;;;;;;11.48;3.92;;;;;;;;;;5030436;28;20043;-78
2022/12/26 16:29:55;;;;;;;5.78;2.70;;;;;;;;;;5039600;28;20017;-78
2022/12/26 16:32:28;;;;;;;8.30;3.15;;;;;;;;;;5045582;28;20553;-78
2022/12/26 16:34:53;;;;;;;6.22;2.17;;;;;;;;;;5046588;28;20025;-81
2022/12/26 16:37:24;;;;;;;6.13;1.67;;;;;;;;;;5045961;28;20031;-82
2022/12/26 16:40:10;;;;;;;6.07;1.70;;;;;;;;;;5044005;28;20045;-80
2022/12/26 16:42:36;;;;;;;7.82;1.75;;;;;;;;;;5043970;28;20033;-79
2022/12/26 16:45:02;;;;;;;3.90;1.70;;;;;;;;;;5039099;28;20202;-84
2022/12/26 16:47:30;;;;;;;4.50;1.38;;;;;;;;;;5046958;28;20025;-85
2022/12/26 16:49:57;;;;;;;5.75;2.22;;;;;;;;;;5022143;28;20039;-79
2022/12/26 16:52:35;;;;;;;2.90;1.80;;;;;;;;;;5047789;28;20029;-81
2022/12/26 16:55:30;;;;;;;9.45;1.60;;;;;;;;;;5025723;28;20108;-84
2022/12/26 16:57:57;;;;;;;3.08;1.38;;;;;;;;;;4989993;28;20038;-83
2022/12/26 17:00:23;;;;;;;4.85;1.73;;;;;;;;;;5046330;28;20029;-83
2022/12/26 17:02:51;;;;;;;4.53;1.52;;;;;;;;;;5043656;28;20090;-82
2022/12/26 17:05:21;;;;;;;2.75;1.40;;;;;;;;;;5039331;28;20047;-84
2022/12/26 17:07:49;;;;;;;5.38;1.45;;;;;;;;;;5039586;28;20710;-84
2022/12/26 17:10:28;;;;;;;7.55;2.03;;;;;;;;;;5029306;28;20025;-81
2022/12/26 17:12:56;;;;;;;3.67;1.60;;;;;;;;;;5044031;28;20029;-82
2022/12/26 17:15:26;;;;;;;3.00;1.45;;;;;;;;;;5046873;28;20036;-82
2022/12/26 17:17:51;;;;;;;4.93;1.45;;;;;;;;;;5036118;28;20116;-79
2022/12/26 17:20:23;;;;;;;4.13;1.65;;;;;;;;;;5023926;28;20045;-81
2022/12/26 17:22:49;;;;;;;6.10;1.80;;;;;;;;;;5028584;28;20037;-82
2022/12/26 17:25:20;;;;;;;8.35;2.10;;;;;;;;;;5045693;28;20029;-82
2022/12/26 17:28:07;;;;;;;7.10;1.80;;;;;;;;;;5041667;28;20060;-82
2022/12/26 17:30:34;;;;;;;6.05;2.28;;;;;;;;;;5034226;28;20044;-80
2022/12/26 17:33:04;;;;;;;4.82;1.67;;;;;;;;;;5020821;28;20033;-81
2022/12/26 17:35:33;;;;;;;6.57;2.50;;;;;;;;;;5039073;28;20009;-80
2022/12/26 17:38:05;;;;;;;6.97;2.50;;;;;;;;;;5043994;28;20044;-77